sensor_id;sensor_type;location;lat;lon;timestamp;temperature;humidity
68450;SHT30;67758;39.572;2.652;2023-03-01T00:01:04;9.44;79.96
68450;SHT30;67758;39.572;2.652;2023-03-01T00:03:30;9.43;80.37
68450;SHT30;67758;39.572;2.652;2023-03-01T00:05:55;9.43;80.31
68450;SHT30;67758;39.572;2.652;2023-03-01T00:08:21;9.46;80.09
68450;SHT30;67758;39.572;2.652;2023-03-01T00:11:03;9.42;79.96
68450;SHT30;67758;39.572;2.652;2023-03-01T00:13:33;9.50;80.10
68450;SHT30;67758;39.572;2.652;2023-03-01T00:16:04;9.52;80.51
68450;SHT30;67758;39.572;2.652;2023-03-01T00:18:30;9.50;80.80
68450;SHT30;67758;39.572;2.652;2023-03-01T00:20:55;9.50;80.83
68450;SHT30;67758;39.572;2.652;2023-03-01T00:23:22;9.49;80.60
68450;SHT30;67758;39.572;2.652;2023-03-01T00:25:49;9.47;80.37
68450;SHT30;67758;39.572;2.652;2023-03-01T00:28:15;9.46;80.61
68450;SHT30;67758;39.572;2.652;2023-03-01T00:30:41;9.47;81.20
68450;SHT30;67758;39.572;2.652;2023-03-01T00:33:08;9.49;81.08
68450;SHT30;67758;39.572;2.652;2023-03-01T00:35:34;9.46;81.89
68450;SHT30;67758;39.572;2.652;2023-03-01T00:38:01;9.46;80.85
68450;SHT30;67758;39.572;2.652;2023-03-01T00:40:28;9.50;81.75
68450;SHT30;67758;39.572;2.652;2023-03-01T00:42:54;9.47;82.02
68450;SHT30;67758;39.572;2.652;2023-03-01T00:45:20;9.43;82.24
68450;SHT30;67758;39.572;2.652;2023-03-01T00:47:45;9.36;82.34
68450;SHT30;67758;39.572;2.652;2023-03-01T00:50:12;9.32;81.99
68450;SHT30;67758;39.572;2.652;2023-03-01T00:52:38;9.28;82.04
68450;SHT30;67758;39.572;2.652;2023-03-01T00:55:04;9.35;83.99
68450;SHT30;67758;39.572;2.652;2023-03-01T00:57:31;9.33;85.03
68450;SHT30;67758;39.572;2.652;2023-03-01T00:59:56;9.19;84.32
68450;SHT30;67758;39.572;2.652;2023-03-01T01:02:22;9.09;83.16
68450;SHT30;67758;39.572;2.652;2023-03-01T01:04:48;9.14;81.46
68450;SHT30;67758;39.572;2.652;2023-03-01T01:07:14;9.18;81.15
68450;SHT30;67758;39.572;2.652;2023-03-01T01:09:40;9.25;80.49
68450;SHT30;67758;39.572;2.652;2023-03-01T01:12:06;9.23;81.02
68450;SHT30;67758;39.572;2.652;2023-03-01T01:14:32;9.25;81.21
68450;SHT30;67758;39.572;2.652;2023-03-01T01:16:58;9.22;81.31
68450;SHT30;67758;39.572;2.652;2023-03-01T01:19:25;9.16;81.55
68450;SHT30;67758;39.572;2.652;2023-03-01T01:21:51;9.21;81.07
68450;SHT30;67758;39.572;2.652;2023-03-01T01:24:23;9.22;81.08
68450;SHT30;67758;39.572;2.652;2023-03-01T01:26:48;9.22;81.27
68450;SHT30;67758;39.572;2.652;2023-03-01T01:29:14;9.23;81.28
68450;SHT30;67758;39.572;2.652;2023-03-01T01:31:41;9.14;81.37
68450;SHT30;67758;39.572;2.652;2023-03-01T01:34:09;9.09;81.48
68450;SHT30;67758;39.572;2.652;2023-03-01T01:36:37;9.09;81.55
68450;SHT30;67758;39.572;2.652;2023-03-01T01:39:04;9.12;81.63
68450;SHT30;67758;39.572;2.652;2023-03-01T01:41:30;9.16;81.54
68450;SHT30;67758;39.572;2.652;2023-03-01T01:44:15;9.19;82.58
68450;SHT30;67758;39.572;2.652;2023-03-01T01:46:46;9.18;81.85
68450;SHT30;67758;39.572;2.652;2023-03-01T01:49:17;9.21;81.96
68450;SHT30;67758;39.572;2.652;2023-03-01T01:51:46;9.19;81.54
68450;SHT30;67758;39.572;2.652;2023-03-01T01:54:27;9.25;81.24
68450;SHT30;67758;39.572;2.652;2023-03-01T01:57:03;9.25;81.50
68450;SHT30;67758;39.572;2.652;2023-03-01T01:59:33;9.11;81.93
68450;SHT30;67758;39.572;2.652;2023-03-01T02:02:00;9.14;82.24
68450;SHT30;67758;39.572;2.652;2023-03-01T02:04:30;9.12;82.47
68450;SHT30;67758;39.572;2.652;2023-03-01T02:07:30;9.18;83.67
68450;SHT30;67758;39.572;2.652;2023-03-01T02:09:56;9.05;84.10
68450;SHT30;67758;39.572;2.652;2023-03-01T02:12:24;8.95;84.99
68450;SHT30;67758;39.572;2.652;2023-03-01T02:14:51;8.82;85.48
68450;SHT30;67758;39.572;2.652;2023-03-01T02:17:18;8.75;86.21
68450;SHT30;67758;39.572;2.652;2023-03-01T02:22:28;8.71;86.72
68450;SHT30;67758;39.572;2.652;2023-03-01T02:27:56;8.80;86.34
68450;SHT30;67758;39.572;2.652;2023-03-01T02:30:24;8.82;85.93
68450;SHT30;67758;39.572;2.652;2023-03-01T02:32:53;8.87;85.06
68450;SHT30;67758;39.572;2.652;2023-03-01T02:35:21;8.95;85.01
68450;SHT30;67758;39.572;2.652;2023-03-01T02:37:47;9.01;84.33
68450;SHT30;67758;39.572;2.652;2023-03-01T02:40:17;9.01;83.54
68450;SHT30;67758;39.572;2.652;2023-03-01T02:42:53;9.07;83.28
68450;SHT30;67758;39.572;2.652;2023-03-01T02:45:20;9.07;83.08
68450;SHT30;67758;39.572;2.652;2023-03-01T02:47:46;9.07;83.28
68450;SHT30;67758;39.572;2.652;2023-03-01T02:53:53;9.19;86.18
68450;SHT30;67758;39.572;2.652;2023-03-01T02:55:58;9.11;85.73
68450;SHT30;67758;39.572;2.652;2023-03-01T02:58:27;9.07;85.67
68450;SHT30;67758;39.572;2.652;2023-03-01T03:00:53;9.09;86.43
68450;SHT30;67758;39.572;2.652;2023-03-01T03:03:20;9.02;86.00
68450;SHT30;67758;39.572;2.652;2023-03-01T03:05:46;8.89;86.01
68450;SHT30;67758;39.572;2.652;2023-03-01T03:08:13;8.85;86.75
68450;SHT30;67758;39.572;2.652;2023-03-01T03:10:40;8.91;88.67
68450;SHT30;67758;39.572;2.652;2023-03-01T03:13:13;8.75;87.04
68450;SHT30;67758;39.572;2.652;2023-03-01T03:15:41;8.74;88.27
68450;SHT30;67758;39.572;2.652;2023-03-01T03:18:10;8.64;88.11
68450;SHT30;67758;39.572;2.652;2023-03-01T03:20:36;8.60;88.03
68450;SHT30;67758;39.572;2.652;2023-03-01T03:23:03;8.56;87.77
68450;SHT30;67758;39.572;2.652;2023-03-01T03:25:30;8.67;88.96
68450;SHT30;67758;39.572;2.652;2023-03-01T03:27:58;8.60;87.52
68450;SHT30;67758;39.572;2.652;2023-03-01T03:30:30;8.63;87.52
68450;SHT30;67758;39.572;2.652;2023-03-01T03:32:57;8.64;86.72
68450;SHT30;67758;39.572;2.652;2023-03-01T03:35:38;8.68;86.09
68450;SHT30;67758;39.572;2.652;2023-03-01T03:38:06;8.71;85.67
68450;SHT30;67758;39.572;2.652;2023-03-01T03:40:43;8.75;85.04
68450;SHT30;67758;39.572;2.652;2023-03-01T03:43:11;8.78;83.98
68450;SHT30;67758;39.572;2.652;2023-03-01T03:45:37;8.75;83.97
68450;SHT30;67758;39.572;2.652;2023-03-01T03:48:05;8.80;82.20
68450;SHT30;67758;39.572;2.652;2023-03-01T03:50:31;8.84;81.44
68450;SHT30;67758;39.572;2.652;2023-03-01T03:52:59;8.78;80.31
68450;SHT30;67758;39.572;2.652;2023-03-01T03:55:25;8.88;80.65
68450;SHT30;67758;39.572;2.652;2023-03-01T03:57:58;8.82;79.67
68450;SHT30;67758;39.572;2.652;2023-03-01T04:00:27;8.82;78.68
68450;SHT30;67758;39.572;2.652;2023-03-01T04:02:53;8.78;78.46
68450;SHT30;67758;39.572;2.652;2023-03-01T04:05:22;8.77;78.37
68450;SHT30;67758;39.572;2.652;2023-03-01T04:07:47;8.70;78.50
68450;SHT30;67758;39.572;2.652;2023-03-01T04:10:15;8.67;78.63
68450;SHT30;67758;39.572;2.652;2023-03-01T04:12:41;8.67;78.72
68450;SHT30;67758;39.572;2.652;2023-03-01T04:15:10;8.61;78.66
68450;SHT30;67758;39.572;2.652;2023-03-01T04:17:47;8.60;78.64
68450;SHT30;67758;39.572;2.652;2023-03-01T04:20:16;8.51;78.72
68450;SHT30;67758;39.572;2.652;2023-03-01T04:22:43;8.49;78.98
68450;SHT30;67758;39.572;2.652;2023-03-01T04:25:12;8.46;78.87
68450;SHT30;67758;39.572;2.652;2023-03-01T04:27:41;8.43;78.87
68450;SHT30;67758;39.572;2.652;2023-03-01T04:30:08;8.43;78.81
68450;SHT30;67758;39.572;2.652;2023-03-01T04:32:34;8.40;78.44
68450;SHT30;67758;39.572;2.652;2023-03-01T04:35:00;8.41;78.61
68450;SHT30;67758;39.572;2.652;2023-03-01T04:37:26;8.34;78.71
68450;SHT30;67758;39.572;2.652;2023-03-01T04:39:52;8.30;78.88
68450;SHT30;67758;39.572;2.652;2023-03-01T04:42:18;8.25;78.89
68450;SHT30;67758;39.572;2.652;2023-03-01T04:44:44;8.22;79.46
68450;SHT30;67758;39.572;2.652;2023-03-01T04:47:11;8.17;79.44
68450;SHT30;67758;39.572;2.652;2023-03-01T04:49:37;8.13;79.65
68450;SHT30;67758;39.572;2.652;2023-03-01T04:52:03;8.16;78.75
68450;SHT30;67758;39.572;2.652;2023-03-01T04:54:29;8.00;79.55
68450;SHT30;67758;39.572;2.652;2023-03-01T04:56:56;7.93;79.82
68450;SHT30;67758;39.572;2.652;2023-03-01T04:59:22;7.95;79.53
68450;SHT30;67758;39.572;2.652;2023-03-01T05:01:49;7.95;79.58
68450;SHT30;67758;39.572;2.652;2023-03-01T05:04:15;7.90;79.67
68450;SHT30;67758;39.572;2.652;2023-03-01T05:06:40;7.93;79.14
68450;SHT30;67758;39.572;2.652;2023-03-01T05:09:06;7.96;79.10
68450;SHT30;67758;39.572;2.652;2023-03-01T05:11:32;7.95;79.04
68450;SHT30;67758;39.572;2.652;2023-03-01T05:14:05;7.98;78.78
68450;SHT30;67758;39.572;2.652;2023-03-01T05:16:32;7.99;78.62
68450;SHT30;67758;39.572;2.652;2023-03-01T05:18:58;7.99;78.49
68450;SHT30;67758;39.572;2.652;2023-03-01T05:21:24;7.98;78.43
68450;SHT30;67758;39.572;2.652;2023-03-01T05:23:51;7.99;78.33
68450;SHT30;67758;39.572;2.652;2023-03-01T05:26:19;8.00;78.32
68450;SHT30;67758;39.572;2.652;2023-03-01T05:28:47;7.96;78.32
68450;SHT30;67758;39.572;2.652;2023-03-01T05:31:12;7.93;78.41
68450;SHT30;67758;39.572;2.652;2023-03-01T05:33:41;7.93;78.29
68450;SHT30;67758;39.572;2.652;2023-03-01T05:36:10;7.89;78.53
68450;SHT30;67758;39.572;2.652;2023-03-01T05:38:36;7.88;78.72
68450;SHT30;67758;39.572;2.652;2023-03-01T05:41:02;7.86;78.79
68450;SHT30;67758;39.572;2.652;2023-03-01T05:43:31;7.82;78.82
68450;SHT30;67758;39.572;2.652;2023-03-01T05:46:00;7.79;78.92
68450;SHT30;67758;39.572;2.652;2023-03-01T05:48:25;7.75;79.26
68450;SHT30;67758;39.572;2.652;2023-03-01T05:50:51;7.71;79.30
68450;SHT30;67758;39.572;2.652;2023-03-01T05:53:19;7.68;79.09
68450;SHT30;67758;39.572;2.652;2023-03-01T05:55:46;7.68;79.08
68450;SHT30;67758;39.572;2.652;2023-03-01T05:58:15;7.72;78.62
68450;SHT30;67758;39.572;2.652;2023-03-01T06:00:41;7.76;78.16
68450;SHT30;67758;39.572;2.652;2023-03-01T06:03:10;7.83;77.95
68450;SHT30;67758;39.572;2.652;2023-03-01T06:05:36;7.82;77.73
68450;SHT30;67758;39.572;2.652;2023-03-01T06:08:02;7.86;77.38
68450;SHT30;67758;39.572;2.652;2023-03-01T06:10:28;7.86;77.08
68450;SHT30;67758;39.572;2.652;2023-03-01T06:12:55;7.83;76.79
68450;SHT30;67758;39.572;2.652;2023-03-01T06:15:21;7.86;76.86
68450;SHT30;67758;39.572;2.652;2023-03-01T06:17:47;7.83;77.25
68450;SHT30;67758;39.572;2.652;2023-03-01T06:20:16;7.79;77.29
68450;SHT30;67758;39.572;2.652;2023-03-01T06:22:43;7.81;76.89
68450;SHT30;67758;39.572;2.652;2023-03-01T06:25:09;7.93;76.85
68450;SHT30;67758;39.572;2.652;2023-03-01T06:27:35;7.83;76.57
68450;SHT30;67758;39.572;2.652;2023-03-01T06:30:01;7.79;76.97
68450;SHT30;67758;39.572;2.652;2023-03-01T06:32:27;7.75;77.44
68450;SHT30;67758;39.572;2.652;2023-03-01T06:34:52;7.78;77.37
68450;SHT30;67758;39.572;2.652;2023-03-01T06:37:18;7.76;77.25
68450;SHT30;67758;39.572;2.652;2023-03-01T06:39:44;7.75;77.38
68450;SHT30;67758;39.572;2.652;2023-03-01T06:42:09;7.69;77.91
68450;SHT30;67758;39.572;2.652;2023-03-01T06:44:36;7.68;77.96
68450;SHT30;67758;39.572;2.652;2023-03-01T06:47:02;7.65;77.46
68450;SHT30;67758;39.572;2.652;2023-03-01T06:49:28;7.82;77.12
68450;SHT30;67758;39.572;2.652;2023-03-01T06:51:54;7.75;77.31
68450;SHT30;67758;39.572;2.652;2023-03-01T06:54:20;7.66;77.95
68450;SHT30;67758;39.572;2.652;2023-03-01T06:56:48;7.64;78.07
68450;SHT30;67758;39.572;2.652;2023-03-01T06:59:21;7.66;77.72
68450;SHT30;67758;39.572;2.652;2023-03-01T07:01:47;7.66;77.99
68450;SHT30;67758;39.572;2.652;2023-03-01T07:04:13;7.65;78.18
68450;SHT30;67758;39.572;2.652;2023-03-01T07:06:39;7.65;78.38
68450;SHT30;67758;39.572;2.652;2023-03-01T07:09:04;7.68;77.86
68450;SHT30;67758;39.572;2.652;2023-03-01T07:11:33;7.79;77.26
68450;SHT30;67758;39.572;2.652;2023-03-01T07:13:58;7.75;77.26
68450;SHT30;67758;39.572;2.652;2023-03-01T07:16:25;7.82;77.43
68450;SHT30;67758;39.572;2.652;2023-03-01T07:18:51;7.86;76.89
68450;SHT30;67758;39.572;2.652;2023-03-01T07:21:16;7.90;76.77
68450;SHT30;67758;39.572;2.652;2023-03-01T07:23:42;7.93;77.21
68450;SHT30;67758;39.572;2.652;2023-03-01T07:26:08;7.92;76.84
68450;SHT30;67758;39.572;2.652;2023-03-01T07:28:33;7.96;77.02
68450;SHT30;67758;39.572;2.652;2023-03-01T07:31:07;7.95;77.39
68450;SHT30;67758;39.572;2.652;2023-03-01T07:33:32;7.98;77.51
68450;SHT30;67758;39.572;2.652;2023-03-01T07:36:03;7.96;77.49
68450;SHT30;67758;39.572;2.652;2023-03-01T07:38:29;8.06;77.03
68450;SHT30;67758;39.572;2.652;2023-03-01T07:41:00;8.06;77.32
68450;SHT30;67758;39.572;2.652;2023-03-01T07:43:27;8.14;77.25
68450;SHT30;67758;39.572;2.652;2023-03-01T07:45:52;8.14;77.21
68450;SHT30;67758;39.572;2.652;2023-03-01T07:48:21;8.20;77.69
68450;SHT30;67758;39.572;2.652;2023-03-01T07:50:47;8.30;76.81
68450;SHT30;67758;39.572;2.652;2023-03-01T07:53:14;8.33;76.79
68450;SHT30;67758;39.572;2.652;2023-03-01T07:55:40;8.43;76.01
68450;SHT30;67758;39.572;2.652;2023-03-01T07:58:05;8.50;76.17
68450;SHT30;67758;39.572;2.652;2023-03-01T08:00:31;8.53;76.56
68450;SHT30;67758;39.572;2.652;2023-03-01T08:03:01;8.58;75.88
68450;SHT30;67758;39.572;2.652;2023-03-01T08:05:27;8.72;75.56
68450;SHT30;67758;39.572;2.652;2023-03-01T08:07:53;8.81;75.28
68450;SHT30;67758;39.572;2.652;2023-03-01T08:10:19;8.85;75.15
68450;SHT30;67758;39.572;2.652;2023-03-01T08:12:45;8.97;74.54
68450;SHT30;67758;39.572;2.652;2023-03-01T08:15:11;9.12;73.77
68450;SHT30;67758;39.572;2.652;2023-03-01T08:17:48;9.23;73.13
68450;SHT30;67758;39.572;2.652;2023-03-01T08:20:36;9.39;72.36
68450;SHT30;67758;39.572;2.652;2023-03-01T08:23:21;9.46;71.66
68450;SHT30;67758;39.572;2.652;2023-03-01T08:25:47;9.52;71.07
68450;SHT30;67758;39.572;2.652;2023-03-01T08:28:12;9.56;71.42
68450;SHT30;67758;39.572;2.652;2023-03-01T08:30:38;9.53;71.55
68450;SHT30;67758;39.572;2.652;2023-03-01T08:33:03;9.53;72.19
68450;SHT30;67758;39.572;2.652;2023-03-01T08:35:29;9.53;72.56
68450;SHT30;67758;39.572;2.652;2023-03-01T08:37:55;9.52;72.77
68450;SHT30;67758;39.572;2.652;2023-03-01T08:40:20;9.56;72.43
68450;SHT30;67758;39.572;2.652;2023-03-01T08:42:46;9.57;71.92
68450;SHT30;67758;39.572;2.652;2023-03-01T08:45:11;9.56;71.13
68450;SHT30;67758;39.572;2.652;2023-03-01T08:47:39;9.62;71.89
68450;SHT30;67758;39.572;2.652;2023-03-01T08:50:05;9.69;70.99
68450;SHT30;67758;39.572;2.652;2023-03-01T08:52:32;9.73;70.66
68450;SHT30;67758;39.572;2.652;2023-03-01T08:54:58;9.90;70.83
68450;SHT30;67758;39.572;2.652;2023-03-01T08:57:23;9.90;70.48
68450;SHT30;67758;39.572;2.652;2023-03-01T08:59:49;10.00;70.56
68450;SHT30;67758;39.572;2.652;2023-03-01T09:02:17;9.93;69.62
68450;SHT30;67758;39.572;2.652;2023-03-01T09:04:43;9.93;70.04
68450;SHT30;67758;39.572;2.652;2023-03-01T09:07:10;9.93;69.49
68450;SHT30;67758;39.572;2.652;2023-03-01T09:09:36;9.91;69.44
68450;SHT30;67758;39.572;2.652;2023-03-01T09:12:02;9.93;70.12
68450;SHT30;67758;39.572;2.652;2023-03-01T09:14:27;9.91;69.45
68450;SHT30;67758;39.572;2.652;2023-03-01T09:16:53;9.91;69.56
68450;SHT30;67758;39.572;2.652;2023-03-01T09:19:22;9.95;69.56
68450;SHT30;67758;39.572;2.652;2023-03-01T09:21:47;10.00;69.76
68450;SHT30;67758;39.572;2.652;2023-03-01T09:24:21;10.01;69.30
68450;SHT30;67758;39.572;2.652;2023-03-01T09:26:47;9.97;69.02
68450;SHT30;67758;39.572;2.652;2023-03-01T09:29:13;10.05;69.18
68450;SHT30;67758;39.572;2.652;2023-03-01T09:31:40;10.13;69.24
68450;SHT30;67758;39.572;2.652;2023-03-01T09:34:06;10.21;69.16
68450;SHT30;67758;39.572;2.652;2023-03-01T09:36:32;10.22;69.59
68450;SHT30;67758;39.572;2.652;2023-03-01T09:38:59;10.25;68.12
68450;SHT30;67758;39.572;2.652;2023-03-01T09:45:10;10.48;68.02
68450;SHT30;67758;39.572;2.652;2023-03-01T09:47:29;10.59;68.91
68450;SHT30;67758;39.572;2.652;2023-03-01T09:50:06;10.59;67.64
68450;SHT30;67758;39.572;2.652;2023-03-01T09:55:31;10.89;66.58
68450;SHT30;67758;39.572;2.652;2023-03-01T09:58:08;10.89;66.01
68450;SHT30;67758;39.572;2.652;2023-03-01T10:00:39;10.88;65.78
68450;SHT30;67758;39.572;2.652;2023-03-01T10:03:19;11.00;65.43
68450;SHT30;67758;39.572;2.652;2023-03-01T10:06:15;11.15;65.37
68450;SHT30;67758;39.572;2.652;2023-03-01T10:08:56;11.17;65.20
68450;SHT30;67758;39.572;2.652;2023-03-01T10:11:26;11.26;63.17
68450;SHT30;67758;39.572;2.652;2023-03-01T10:14:13;11.38;64.19
68450;SHT30;67758;39.572;2.652;2023-03-01T10:16:47;11.40;62.81
68450;SHT30;67758;39.572;2.652;2023-03-01T10:24:48;11.92;60.85
68450;SHT30;67758;39.572;2.652;2023-03-01T10:32:49;14.50;54.44
68450;SHT30;67758;39.572;2.652;2023-03-01T10:38:11;15.36;48.90
68450;SHT30;67758;39.572;2.652;2023-03-01T10:40:54;15.18;53.21
68450;SHT30;67758;39.572;2.652;2023-03-01T10:43:20;15.76;53.16
68450;SHT30;67758;39.572;2.652;2023-03-01T10:45:47;15.96;50.59
68450;SHT30;67758;39.572;2.652;2023-03-01T10:48:21;15.48;50.37
68450;SHT30;67758;39.572;2.652;2023-03-01T10:53:40;13.81;53.02
68450;SHT30;67758;39.572;2.652;2023-03-01T10:56:10;13.37;55.35
68450;SHT30;67758;39.572;2.652;2023-03-01T10:58:41;14.36;54.96
68450;SHT30;67758;39.572;2.652;2023-03-01T11:03:41;16.98;50.67
68450;SHT30;67758;39.572;2.652;2023-03-01T11:06:21;17.23;46.80
68450;SHT30;67758;39.572;2.652;2023-03-01T11:08:49;15.74;51.77
68450;SHT30;67758;39.572;2.652;2023-03-01T11:11:36;16.58;49.57
68450;SHT30;67758;39.572;2.652;2023-03-01T11:14:12;16.40;50.49
68450;SHT30;67758;39.572;2.652;2023-03-01T11:16:41;16.31;51.22
68450;SHT30;67758;39.572;2.652;2023-03-01T11:21:47;17.46;51.44
68450;SHT30;67758;39.572;2.652;2023-03-01T11:24:16;18.35;49.57
68450;SHT30;67758;39.572;2.652;2023-03-01T11:26:47;18.62;48.86
68450;SHT30;67758;39.572;2.652;2023-03-01T11:29:26;18.72;50.00
68450;SHT30;67758;39.572;2.652;2023-03-01T11:31:55;18.26;50.05
68450;SHT30;67758;39.572;2.652;2023-03-01T11:37:32;19.31;46.83
68450;SHT30;67758;39.572;2.652;2023-03-01T11:40:03;17.18;52.91
68450;SHT30;67758;39.572;2.652;2023-03-01T11:42:48;16.79;52.71
68450;SHT30;67758;39.572;2.652;2023-03-01T11:45:15;17.78;51.27
68450;SHT30;67758;39.572;2.652;2023-03-01T11:48:02;15.17;56.54
68450;SHT30;67758;39.572;2.652;2023-03-01T11:50:44;15.65;54.86
68450;SHT30;67758;39.572;2.652;2023-03-01T12:00:57;18.11;48.52
68450;SHT30;67758;39.572;2.652;2023-03-01T12:48:50;14.70;49.32
68450;SHT30;67758;39.572;2.652;2023-03-01T12:51:22;15.39;46.32
68450;SHT30;67758;39.572;2.652;2023-03-01T12:53:50;15.80;47.01
68450;SHT30;67758;39.572;2.652;2023-03-01T12:56:20;16.45;44.06
68450;SHT30;67758;39.572;2.652;2023-03-01T13:07:43;16.67;45.28
68450;SHT30;67758;39.572;2.652;2023-03-01T13:12:52;16.51;42.89
68450;SHT30;67758;39.572;2.652;2023-03-01T13:17:51;15.79;42.76
68450;SHT30;67758;39.572;2.652;2023-03-01T13:20:25;15.85;43.74
68450;SHT30;67758;39.572;2.652;2023-03-01T13:23:24;15.59;43.08
68450;SHT30;67758;39.572;2.652;2023-03-01T13:30:59;15.43;44.52
68450;SHT30;67758;39.572;2.652;2023-03-01T13:35:55;15.42;44.24
68450;SHT30;67758;39.572;2.652;2023-03-01T13:47:03;16.40;42.93
68450;SHT30;67758;39.572;2.652;2023-03-01T13:55:27;15.90;46.34
68450;SHT30;67758;39.572;2.652;2023-03-01T13:58:00;15.19;44.41
68450;SHT30;67758;39.572;2.652;2023-03-01T14:08:27;15.17;45.41
68450;SHT30;67758;39.572;2.652;2023-03-01T14:19:25;15.76;45.15
68450;SHT30;67758;39.572;2.652;2023-03-01T14:22:13;15.99;45.41
68450;SHT30;67758;39.572;2.652;2023-03-01T14:24:48;15.77;45.84
68450;SHT30;67758;39.572;2.652;2023-03-01T14:27:17;15.36;45.32
68450;SHT30;67758;39.572;2.652;2023-03-01T14:29:58;15.19;47.11
68450;SHT30;67758;39.572;2.652;2023-03-01T14:32:29;14.85;45.15
68450;SHT30;67758;39.572;2.652;2023-03-01T14:34:57;14.81;46.69
68450;SHT30;67758;39.572;2.652;2023-03-01T14:37:33;14.97;47.04
68450;SHT30;67758;39.572;2.652;2023-03-01T14:40:00;15.07;45.59
68450;SHT30;67758;39.572;2.652;2023-03-01T14:42:30;15.02;45.91
68450;SHT30;67758;39.572;2.652;2023-03-01T14:44:57;15.15;47.83
68450;SHT30;67758;39.572;2.652;2023-03-01T14:49:56;14.94;48.64
68450;SHT30;67758;39.572;2.652;2023-03-01T14:52:28;15.14;48.41
68450;SHT30;67758;39.572;2.652;2023-03-01T14:54:56;15.39;46.97
68450;SHT30;67758;39.572;2.652;2023-03-01T14:57:24;15.26;46.05
68450;SHT30;67758;39.572;2.652;2023-03-01T14:59:52;15.05;46.58
68450;SHT30;67758;39.572;2.652;2023-03-01T15:02:22;15.09;47.15
68450;SHT30;67758;39.572;2.652;2023-03-01T15:05:00;15.36;47.18
68450;SHT30;67758;39.572;2.652;2023-03-01T15:07:39;15.49;47.66
68450;SHT30;67758;39.572;2.652;2023-03-01T15:10:11;15.74;47.66
68450;SHT30;67758;39.572;2.652;2023-03-01T15:12:45;15.32;46.42
68450;SHT30;67758;39.572;2.652;2023-03-01T15:15:38;15.48;47.66
68450;SHT30;67758;39.572;2.652;2023-03-01T15:18:31;15.02;47.84
68450;SHT30;67758;39.572;2.652;2023-03-01T15:21:18;14.78;48.41
68450;SHT30;67758;39.572;2.652;2023-03-01T15:23:54;15.08;48.19
68450;SHT30;67758;39.572;2.652;2023-03-01T15:28:52;14.88;48.00
68450;SHT30;67758;39.572;2.652;2023-03-01T15:31:22;14.70;48.72
68450;SHT30;67758;39.572;2.652;2023-03-01T15:33:48;14.71;49.14
68450;SHT30;67758;39.572;2.652;2023-03-01T15:36:36;14.84;49.28
68450;SHT30;67758;39.572;2.652;2023-03-01T15:39:03;15.26;49.08
68450;SHT30;67758;39.572;2.652;2023-03-01T15:41:46;14.95;49.61
68450;SHT30;67758;39.572;2.652;2023-03-01T15:44:30;14.74;51.49
68450;SHT30;67758;39.572;2.652;2023-03-01T15:46:56;14.53;50.00
68450;SHT30;67758;39.572;2.652;2023-03-01T15:51:51;14.48;51.85
68450;SHT30;67758;39.572;2.652;2023-03-01T15:54:21;14.51;50.87
68450;SHT30;67758;39.572;2.652;2023-03-01T15:56:47;14.70;49.46
68450;SHT30;67758;39.572;2.652;2023-03-01T15:59:13;14.56;48.63
68450;SHT30;67758;39.572;2.652;2023-03-01T16:01:43;14.47;49.28
68450;SHT30;67758;39.572;2.652;2023-03-01T16:04:10;14.73;50.33
68450;SHT30;67758;39.572;2.652;2023-03-01T16:06:39;14.73;48.73
68450;SHT30;67758;39.572;2.652;2023-03-01T16:09:05;14.85;49.64
68450;SHT30;67758;39.572;2.652;2023-03-01T16:11:30;15.43;49.17
68450;SHT30;67758;39.572;2.652;2023-03-01T16:13:57;15.08;48.73
68450;SHT30;67758;39.572;2.652;2023-03-01T16:16:23;14.74;48.54
68450;SHT30;67758;39.572;2.652;2023-03-01T16:18:49;15.22;50.94
68450;SHT30;67758;39.572;2.652;2023-03-01T16:21:20;15.18;51.22
68450;SHT30;67758;39.572;2.652;2023-03-01T16:23:48;15.40;50.49
68450;SHT30;67758;39.572;2.652;2023-03-01T16:26:14;15.56;51.03
68450;SHT30;67758;39.572;2.652;2023-03-01T16:28:41;15.71;50.62
68450;SHT30;67758;39.572;2.652;2023-03-01T16:31:07;16.10;48.99
68450;SHT30;67758;39.572;2.652;2023-03-01T16:33:33;16.03;48.23
68450;SHT30;67758;39.572;2.652;2023-03-01T16:36:09;15.85;48.86
68450;SHT30;67758;39.572;2.652;2023-03-01T16:38:35;15.58;51.78
68450;SHT30;67758;39.572;2.652;2023-03-01T16:41:00;15.65;51.52
68450;SHT30;67758;39.572;2.652;2023-03-01T16:43:26;15.24;51.87
68450;SHT30;67758;39.572;2.652;2023-03-01T16:45:52;14.85;52.96
68450;SHT30;67758;39.572;2.652;2023-03-01T16:48:18;14.87;52.81
68450;SHT30;67758;39.572;2.652;2023-03-01T16:50:43;14.59;54.28
68450;SHT30;67758;39.572;2.652;2023-03-01T16:53:09;14.20;54.74
68450;SHT30;67758;39.572;2.652;2023-03-01T16:55:35;13.95;55.85
68450;SHT30;67758;39.572;2.652;2023-03-01T16:58:01;13.74;55.87
68450;SHT30;67758;39.572;2.652;2023-03-01T17:00:27;13.55;57.42
68450;SHT30;67758;39.572;2.652;2023-03-01T17:02:53;13.51;57.52
68450;SHT30;67758;39.572;2.652;2023-03-01T17:05:19;13.34;58.53
68450;SHT30;67758;39.572;2.652;2023-03-01T17:07:46;13.11;58.30
68450;SHT30;67758;39.572;2.652;2023-03-01T17:10:12;12.79;58.29
68450;SHT30;67758;39.572;2.652;2023-03-01T17:12:38;12.35;59.26
68450;SHT30;67758;39.572;2.652;2023-03-01T17:15:05;12.12;60.28
68450;SHT30;67758;39.572;2.652;2023-03-01T17:17:31;11.94;60.35
68450;SHT30;67758;39.572;2.652;2023-03-01T17:19:57;11.89;60.65
68450;SHT30;67758;39.572;2.652;2023-03-01T17:22:23;11.68;61.20
68450;SHT30;67758;39.572;2.652;2023-03-01T17:24:48;11.47;62.20
68450;SHT30;67758;39.572;2.652;2023-03-01T17:27:14;11.33;63.15
68450;SHT30;67758;39.572;2.652;2023-03-01T17:29:40;11.22;62.96
68450;SHT30;67758;39.572;2.652;2023-03-01T17:32:07;11.05;62.71
68450;SHT30;67758;39.572;2.652;2023-03-01T17:34:33;10.95;62.73
68450;SHT30;67758;39.572;2.652;2023-03-01T17:36:59;10.85;63.57
68450;SHT30;67758;39.572;2.652;2023-03-01T17:39:25;10.79;63.13
68450;SHT30;67758;39.572;2.652;2023-03-01T17:41:56;10.73;63.20
68450;SHT30;67758;39.572;2.652;2023-03-01T17:44:22;10.71;63.91
68450;SHT30;67758;39.572;2.652;2023-03-01T17:46:48;10.64;63.33
68450;SHT30;67758;39.572;2.652;2023-03-01T17:49:14;10.65;64.79
68450;SHT30;67758;39.572;2.652;2023-03-01T17:51:41;10.64;64.89
68450;SHT30;67758;39.572;2.652;2023-03-01T17:54:07;10.59;64.11
68450;SHT30;67758;39.572;2.652;2023-03-01T17:56:32;10.54;64.25
68450;SHT30;67758;39.572;2.652;2023-03-01T17:58:58;10.49;63.29
68450;SHT30;67758;39.572;2.652;2023-03-01T18:01:24;10.49;64.78
68450;SHT30;67758;39.572;2.652;2023-03-01T18:03:50;10.45;63.65
68450;SHT30;67758;39.572;2.652;2023-03-01T18:06:19;10.44;63.82
68450;SHT30;67758;39.572;2.652;2023-03-01T18:08:45;10.40;64.08
68450;SHT30;67758;39.572;2.652;2023-03-01T18:11:12;10.34;63.86
68450;SHT30;67758;39.572;2.652;2023-03-01T18:13:38;10.34;64.86
68450;SHT30;67758;39.572;2.652;2023-03-01T18:16:10;10.33;65.38
68450;SHT30;67758;39.572;2.652;2023-03-01T18:18:37;10.25;63.87
68450;SHT30;67758;39.572;2.652;2023-03-01T18:21:03;10.25;64.38
68450;SHT30;67758;39.572;2.652;2023-03-01T18:23:30;10.24;66.99